createdAt,value
2023-02-28T00:00:38.533Z,0
2023-02-28T00:01:39.723Z,0
2023-02-28T00:02:38.771Z,0
2023-02-28T00:03:38.981Z,0
2023-02-28T00:04:38.635Z,0
2023-02-28T00:05:38.582Z,0
2023-02-28T00:06:38.620Z,0
2023-02-28T00:07:38.631Z,0
2023-02-28T00:08:38.522Z,0
2023-02-28T00:09:38.469Z,0
2023-02-28T00:10:38.404Z,0
2023-02-28T00:11:39.127Z,0
2023-02-28T00:12:38.351Z,0
2023-02-28T00:13:38.376Z,0
2023-02-28T00:14:38.254Z,0
2023-02-28T00:15:37.969Z,0
2023-02-28T00:16:38.378Z,0
2023-02-28T00:17:38.135Z,0
2023-02-28T00:18:40.911Z,0
2023-02-28T00:19:38.056Z,0
2023-02-28T00:20:38.097Z,0
2023-02-28T00:21:38.845Z,0
2023-02-28T00:22:38.002Z,0
2023-02-28T00:23:37.943Z,0
2023-02-28T00:24:38.026Z,0
2023-02-28T00:25:37.871Z,0
2023-02-28T00:26:37.790Z,0
2023-02-28T00:27:37.783Z,0
2023-02-28T00:28:37.741Z,0
2023-02-28T00:29:37.703Z,0
2023-02-28T00:30:38.107Z,0
2023-02-28T00:31:38.230Z,0
2023-02-28T00:32:37.556Z,0
2023-02-28T00:33:37.582Z,0
2023-02-28T00:34:37.510Z,0
2023-02-28T00:35:37.626Z,0
2023-02-28T00:36:37.518Z,0
2023-02-28T00:37:37.355Z,0
2023-02-28T00:38:37.381Z,0
2023-02-28T00:39:37.288Z,0
2023-02-28T00:40:37.301Z,0
2023-02-28T00:41:38.005Z,0
2023-02-28T00:42:37.191Z,0
2023-02-28T00:43:37.195Z,0
2023-02-28T00:44:37.155Z,0
2023-02-28T00:45:37.118Z,0
2023-02-28T00:46:37.301Z,0
2023-02-28T00:47:37.833Z,0
2023-02-28T00:48:36.975Z,0
2023-02-28T00:49:36.692Z,0
2023-02-28T00:50:36.920Z,0
2023-02-28T00:51:37.750Z,0
2023-02-28T00:52:37.000Z,0
2023-02-28T00:53:36.804Z,0
2023-02-28T00:54:36.777Z,0
2023-02-28T00:55:36.689Z,0
2023-02-28T00:56:36.821Z,0
2023-02-28T00:57:36.619Z,0
2023-02-28T00:58:36.651Z,0
2023-02-28T00:59:36.518Z,0
2023-02-28T01:00:36.480Z,0
2023-02-28T01:01:37.829Z,0
2023-02-28T01:02:36.403Z,0
2023-02-28T01:03:36.367Z,0
2023-02-28T01:04:36.667Z,0
2023-02-28T01:05:36.299Z,0
2023-02-28T01:06:36.275Z,0
2023-02-28T01:07:36.213Z,0
2023-02-28T01:08:36.172Z,0
2023-02-28T01:09:36.146Z,0
2023-02-28T01:10:36.136Z,0
2023-02-28T01:11:36.748Z,0
2023-02-28T01:12:37.825Z,0
2023-02-28T01:13:35.869Z,0
2023-02-28T01:14:35.949Z,0
2023-02-28T01:15:36.123Z,0
2023-02-28T01:16:35.881Z,0
2023-02-28T01:17:35.853Z,0
2023-02-28T01:18:35.854Z,0
2023-02-28T01:19:35.509Z,0
2023-02-28T01:20:35.720Z,0
2023-02-28T01:21:36.447Z,0
2023-02-28T01:22:35.656Z,0
2023-02-28T01:23:35.585Z,0
2023-02-28T01:24:36.843Z,0
2023-02-28T01:25:35.708Z,0
2023-02-28T01:26:35.530Z,0
2023-02-28T01:27:35.437Z,0
2023-02-28T01:28:35.443Z,0
2023-02-28T01:29:35.415Z,0
2023-02-28T01:30:35.312Z,0
2023-02-28T01:31:36.781Z,0
2023-02-28T01:32:35.355Z,0
2023-02-28T01:33:35.199Z,0
2023-02-28T01:34:35.156Z,0
2023-02-28T01:35:35.344Z,0
2023-02-28T01:36:35.115Z,0
2023-02-28T01:37:35.213Z,0
2023-02-28T01:38:35.032Z,0
2023-02-28T01:39:34.983Z,0
2023-02-28T01:40:34.926Z,0
2023-02-28T01:41:36.186Z,0
2023-02-28T01:42:34.913Z,0
2023-02-28T01:43:34.904Z,0
2023-02-28T01:44:34.810Z,0
2023-02-28T01:45:34.776Z,0
2023-02-28T01:46:34.895Z,0
2023-02-28T01:47:34.668Z,0
2023-02-28T01:48:34.628Z,0
2023-02-28T01:49:34.585Z,0
2023-02-28T01:50:34.522Z,0
2023-02-28T01:51:35.523Z,0
2023-02-28T01:52:34.453Z,0
2023-02-28T01:53:34.476Z,0
2023-02-28T01:54:34.416Z,0
2023-02-28T01:55:34.502Z,0
2023-02-28T01:56:34.303Z,0
2023-02-28T01:57:34.299Z,0
2023-02-28T01:58:34.279Z,0
2023-02-28T01:59:34.187Z,0
2023-02-28T02:00:34.185Z,0
2023-02-28T02:01:35.381Z,0
2023-02-28T02:02:34.346Z,0
2023-02-28T02:03:34.058Z,0
2023-02-28T02:04:33.996Z,0
2023-02-28T02:05:33.990Z,0
2023-02-28T02:06:33.929Z,0
2023-02-28T02:07:33.881Z,0
2023-02-28T02:08:34.119Z,0
2023-02-28T02:09:33.833Z,0
2023-02-28T02:10:33.798Z,0
2023-02-28T02:11:34.460Z,0
2023-02-28T02:12:33.679Z,0
2023-02-28T02:13:33.648Z,0
2023-02-28T02:14:33.716Z,0
2023-02-28T02:15:33.576Z,0
2023-02-28T02:16:33.690Z,0
2023-02-28T02:17:33.514Z,0
2023-02-28T02:18:33.456Z,0
2023-02-28T02:19:33.406Z,0
2023-02-28T02:20:33.380Z,0
2023-02-28T02:21:36.603Z,0
2023-02-28T02:22:33.294Z,0
2023-02-28T02:23:33.299Z,0
2023-02-28T02:24:33.207Z,0
2023-02-28T02:25:33.174Z,0
2023-02-28T02:26:33.249Z,0
2023-02-28T02:27:33.110Z,0
2023-02-28T02:28:33.107Z,0
2023-02-28T02:29:33.037Z,0
2023-02-28T02:30:33.029Z,0
2023-02-28T02:31:34.317Z,0
2023-02-28T02:32:33.288Z,0
2023-02-28T02:33:32.959Z,0
2023-02-28T02:34:32.816Z,0
2023-02-28T02:35:33.069Z,0
2023-02-28T02:36:32.753Z,0
2023-02-28T02:37:32.713Z,0
2023-02-28T02:38:32.671Z,0
2023-02-28T02:39:32.669Z,0
2023-02-28T02:40:32.587Z,0
2023-02-28T02:41:33.481Z,0
2023-02-28T02:42:32.584Z,0
2023-02-28T02:43:32.262Z,0
2023-02-28T02:44:32.505Z,0
2023-02-28T02:45:32.323Z,0
2023-02-28T02:46:32.655Z,0
2023-02-28T02:47:32.337Z,0
2023-02-28T02:48:32.298Z,0
2023-02-28T02:49:32.266Z,0
2023-02-28T02:50:32.214Z,0
2023-02-28T02:51:32.969Z,0
2023-02-28T02:52:32.125Z,0
2023-02-28T02:53:32.127Z,0
2023-02-28T02:54:31.961Z,0
2023-02-28T02:55:32.004Z,0
2023-02-28T02:56:31.979Z,0
2023-02-28T02:57:31.914Z,0
2023-02-28T02:58:31.933Z,0
2023-02-28T02:59:32.216Z,0
2023-02-28T03:00:31.809Z,0
2023-02-28T03:01:33.186Z,0
2023-02-28T03:02:31.816Z,0
2023-02-28T03:03:31.974Z,0
2023-02-28T03:04:31.679Z,0
2023-02-28T03:05:31.663Z,0
2023-02-28T03:06:31.589Z,0
2023-02-28T03:07:31.613Z,0
2023-02-28T03:08:31.506Z,0
2023-02-28T03:09:31.448Z,0
2023-02-28T03:10:31.426Z,0
2023-02-28T03:11:32.481Z,0
2023-02-28T03:12:31.344Z,0
2023-02-28T03:13:31.335Z,0
2023-02-28T03:14:31.303Z,0
2023-02-28T03:15:31.219Z,0
2023-02-28T03:16:31.723Z,0
2023-02-28T03:17:31.144Z,0
2023-02-28T03:18:31.155Z,0
2023-02-28T03:19:31.100Z,0
2023-02-28T03:20:31.069Z,0
2023-02-28T03:21:31.644Z,0
2023-02-28T03:22:30.945Z,0
2023-02-28T03:23:30.916Z,0
2023-02-28T03:24:30.880Z,0
2023-02-28T03:25:31.044Z,0
2023-02-28T03:26:30.798Z,0
2023-02-28T03:27:30.768Z,0
2023-02-28T03:28:30.746Z,0
2023-02-28T03:29:30.666Z,0
2023-02-28T03:30:30.674Z,0
2023-02-28T03:31:31.719Z,0
2023-02-28T03:32:30.921Z,0
2023-02-28T03:33:30.533Z,0
2023-02-28T03:34:30.569Z,0
2023-02-28T03:35:30.671Z,0
2023-02-28T03:36:30.466Z,0
2023-02-28T03:37:30.823Z,0
2023-02-28T03:38:30.075Z,0
2023-02-28T03:39:30.295Z,0
2023-02-28T03:40:30.265Z,0
2023-02-28T03:41:31.193Z,0
2023-02-28T03:42:30.172Z,0
2023-02-28T03:43:30.109Z,0
2023-02-28T03:44:30.093Z,0
2023-02-28T03:45:29.825Z,0
2023-02-28T03:46:30.100Z,0
2023-02-28T03:47:30.000Z,0
2023-02-28T03:48:29.941Z,0
2023-02-28T03:49:29.665Z,0
2023-02-28T03:50:29.661Z,0
2023-02-28T03:51:30.575Z,0
2023-02-28T03:52:29.788Z,0
2023-02-28T03:53:29.763Z,0
2023-02-28T03:54:29.697Z,0
2023-02-28T03:55:29.675Z,0
2023-02-28T03:56:29.632Z,0
2023-02-28T03:57:29.580Z,0
2023-02-28T03:58:29.532Z,0
2023-02-28T03:59:29.498Z,0
2023-02-28T04:00:32.181Z,0
2023-02-28T04:01:30.697Z,0
2023-02-28T04:02:29.405Z,0
2023-02-28T04:03:29.340Z,0
2023-02-28T04:04:29.647Z,0
2023-02-28T04:05:29.371Z,0
2023-02-28T04:06:29.325Z,0
2023-02-28T04:07:29.199Z,0
2023-02-28T04:08:29.150Z,0
2023-02-28T04:09:29.121Z,0
2023-02-28T04:10:29.109Z,0
2023-02-28T04:11:29.824Z,0
2023-02-28T04:12:29.029Z,0
2023-02-28T04:13:28.933Z,0
2023-02-28T04:14:28.933Z,0
2023-02-28T04:15:28.856Z,0
2023-02-28T04:16:43.629Z,0
2023-02-28T04:17:28.795Z,0
2023-02-28T04:18:28.764Z,0
2023-02-28T04:19:28.706Z,0
2023-02-28T04:20:28.666Z,0
2023-02-28T04:21:31.520Z,0
2023-02-28T04:22:28.602Z,0
2023-02-28T04:23:28.526Z,0
2023-02-28T04:24:28.541Z,0
2023-02-28T04:25:28.278Z,0
2023-02-28T04:26:28.421Z,0
2023-02-28T04:27:28.137Z,0
2023-02-28T04:28:28.350Z,0
2023-02-28T04:29:28.308Z,0
2023-02-28T04:30:28.274Z,0
2023-02-28T04:31:29.033Z,0
2023-02-28T04:32:28.714Z,0
2023-02-28T04:33:28.168Z,0
2023-02-28T04:34:27.880Z,0
2023-02-28T04:35:28.205Z,0
2023-02-28T04:36:28.043Z,0
2023-02-28T04:37:28.009Z,0
2023-02-28T04:38:27.995Z,0
2023-02-28T04:39:27.928Z,0
2023-02-28T04:40:27.908Z,0
2023-02-28T04:41:30.256Z,0
2023-02-28T04:42:27.808Z,0
2023-02-28T04:43:27.747Z,0
2023-02-28T04:44:27.712Z,0
2023-02-28T04:45:27.717Z,0
2023-02-28T04:46:27.710Z,0
2023-02-28T04:47:27.656Z,0
2023-02-28T04:48:29.435Z,0
2023-02-28T04:49:27.513Z,0
2023-02-28T04:50:27.518Z,0
2023-02-28T04:51:27.826Z,0
2023-02-28T04:52:27.396Z,0
2023-02-28T04:53:27.378Z,0
2023-02-28T04:54:27.349Z,0
2023-02-28T04:55:27.264Z,0
2023-02-28T04:56:27.272Z,0
2023-02-28T04:57:27.223Z,0
2023-02-28T04:58:26.902Z,0
2023-02-28T04:59:27.256Z,0
2023-02-28T05:00:26.868Z,0
2023-02-28T05:01:27.339Z,0
2023-02-28T05:02:27.424Z,0
2023-02-28T05:03:28.934Z,0
2023-02-28T05:04:26.865Z,0
2023-02-28T05:05:26.905Z,0
2023-02-28T05:06:26.871Z,0
2023-02-28T05:07:26.802Z,0
2023-02-28T05:08:26.758Z,0
2023-02-28T05:09:26.749Z,0
2023-02-28T05:10:26.691Z,0
2023-02-28T05:11:26.841Z,0
2023-02-28T05:12:26.616Z,0
2023-02-28T05:13:26.589Z,0
2023-02-28T05:14:26.508Z,0
2023-02-28T05:15:26.470Z,0
2023-02-28T05:16:27.040Z,0
2023-02-28T05:17:26.387Z,0
2023-02-28T05:18:26.399Z,0
2023-02-28T05:19:26.338Z,0
2023-02-28T05:20:26.268Z,0
2023-02-28T05:21:26.577Z,0
2023-02-28T05:22:26.212Z,0
2023-02-28T05:23:26.142Z,0
2023-02-28T05:24:26.373Z,0
2023-02-28T05:25:26.223Z,0
2023-02-28T05:26:25.831Z,0
2023-02-28T05:27:26.006Z,0
2023-02-28T05:28:26.011Z,0
2023-02-28T05:29:25.943Z,0
2023-02-28T05:30:25.866Z,0
2023-02-28T05:31:26.126Z,0
2023-02-28T05:32:25.756Z,0
2023-02-28T05:33:25.766Z,0
2023-02-28T05:34:25.733Z,0
2023-02-28T05:35:25.636Z,0
2023-02-28T05:36:25.656Z,0
2023-02-28T05:37:27.419Z,0
2023-02-28T05:38:25.603Z,0
2023-02-28T05:39:25.516Z,0
2023-02-28T05:40:25.505Z,0
2023-02-28T05:41:25.447Z,0
2023-02-28T05:42:25.422Z,0
2023-02-28T05:43:25.353Z,0
2023-02-28T05:44:25.365Z,0
2023-02-28T05:45:25.420Z,0
2023-02-28T05:46:24.982Z,0
2023-02-28T05:47:25.197Z,0
2023-02-28T05:48:25.220Z,0
2023-02-28T05:49:25.129Z,0
2023-02-28T05:50:25.086Z,0
2023-02-28T05:51:25.098Z,0
2023-02-28T05:52:25.043Z,0
2023-02-28T05:53:24.969Z,0
2023-02-28T05:54:24.957Z,0
2023-02-28T05:55:24.894Z,0
2023-02-28T05:56:24.859Z,0
2023-02-28T05:57:33.620Z,0
2023-02-28T05:58:24.774Z,0
2023-02-28T05:59:24.729Z,0
2023-02-28T06:00:24.715Z,0
2023-02-28T06:01:24.676Z,0
2023-02-28T06:02:25.054Z,0
2023-02-28T06:03:24.859Z,0
2023-02-28T06:04:40.081Z,0
2023-02-28T06:05:24.504Z,0
2023-02-28T06:06:24.230Z,0
2023-02-28T06:07:24.412Z,0
2023-02-28T06:08:24.375Z,0
2023-02-28T06:09:24.349Z,5
2023-02-28T06:10:24.362Z,5
2023-02-28T06:11:24.243Z,5
2023-02-28T06:12:24.208Z,5
2023-02-28T06:13:24.202Z,5
2023-02-28T06:14:23.761Z,5
2023-02-28T06:15:24.103Z,10
2023-02-28T06:16:24.281Z,10
2023-02-28T06:17:24.026Z,10
2023-02-28T06:18:23.986Z,10
2023-02-28T06:19:23.925Z,15
2023-02-28T06:20:23.657Z,15
2023-02-28T06:21:23.871Z,15
2023-02-28T06:22:23.823Z,15
2023-02-28T06:23:23.765Z,20
2023-02-28T06:24:23.761Z,20
2023-02-28T06:25:23.742Z,20
2023-02-28T06:26:23.664Z,25
2023-02-28T06:27:23.637Z,25
2023-02-28T06:28:23.575Z,30
2023-02-28T06:29:23.552Z,30
2023-02-28T06:30:23.506Z,35
2023-02-28T06:31:23.975Z,35
2023-02-28T06:32:24.026Z,40
2023-02-28T06:33:23.459Z,40
2023-02-28T06:34:23.138Z,40
2023-02-28T06:35:23.491Z,45
2023-02-28T06:36:23.268Z,45
2023-02-28T06:37:23.203Z,45
2023-02-28T06:38:23.176Z,50
2023-02-28T06:39:23.147Z,50
2023-02-28T06:40:23.229Z,50
2023-02-28T06:41:23.056Z,50
2023-02-28T06:42:23.082Z,55
2023-02-28T06:43:22.977Z,55
2023-02-28T06:44:22.965Z,60
2023-02-28T06:45:22.979Z,65
2023-02-28T06:46:23.248Z,65
2023-02-28T06:47:22.816Z,65
2023-02-28T06:48:22.805Z,65
2023-02-28T06:49:22.786Z,65
2023-02-28T06:50:22.472Z,65
2023-02-28T06:51:22.703Z,65
2023-02-28T06:52:22.624Z,70
2023-02-28T06:53:22.580Z,70
2023-02-28T06:54:22.550Z,70
2023-02-28T06:55:22.529Z,75
2023-02-28T06:56:22.492Z,75
2023-02-28T06:57:22.413Z,75
2023-02-28T06:58:22.403Z,80
2023-02-28T06:59:22.382Z,80
2023-02-28T07:00:22.347Z,80
2023-02-28T07:01:22.704Z,85
2023-02-28T07:02:22.247Z,85
2023-02-28T07:03:22.213Z,85
2023-02-28T07:04:22.378Z,85
2023-02-28T07:05:22.135Z,90
2023-02-28T07:06:21.820Z,90
2023-02-28T07:07:22.013Z,90
2023-02-28T07:08:21.731Z,90
2023-02-28T07:09:22.054Z,95
2023-02-28T07:10:24.506Z,95
2023-02-28T07:11:21.961Z,95
2023-02-28T07:12:21.562Z,95
2023-02-28T07:13:21.765Z,100
2023-02-28T07:14:21.818Z,100
2023-02-28T07:15:21.690Z,100
2023-02-28T07:16:22.028Z,105
2023-02-28T07:17:21.650Z,105
2023-02-28T07:18:21.597Z,105
2023-02-28T07:19:21.307Z,105
2023-02-28T07:20:21.525Z,110
2023-02-28T07:21:21.506Z,110
2023-02-28T07:22:23.227Z,115
2023-02-28T07:23:21.378Z,115
2023-02-28T07:24:21.244Z,115
2023-02-28T07:25:21.288Z,120
2023-02-28T07:26:21.258Z,125
2023-02-28T07:27:21.224Z,125
2023-02-28T07:28:21.204Z,130
2023-02-28T07:29:20.674Z,135
2023-02-28T07:30:21.211Z,140
2023-02-28T07:31:21.322Z,145
2023-02-28T07:32:21.465Z,155
2023-02-28T07:33:21.027Z,160
2023-02-28T07:34:21.130Z,160
2023-02-28T07:35:20.926Z,165
2023-02-28T07:36:21.206Z,165
2023-02-28T07:37:20.906Z,170
2023-02-28T07:38:20.818Z,175
2023-02-28T07:39:20.756Z,185
2023-02-28T07:40:20.756Z,190
2023-02-28T07:41:20.672Z,190
2023-02-28T07:42:20.647Z,195
2023-02-28T07:43:20.599Z,195
2023-02-28T07:44:20.352Z,200
2023-02-28T07:45:20.556Z,200
2023-02-28T07:46:20.983Z,200
2023-02-28T07:47:20.444Z,205
2023-02-28T07:48:20.660Z,215
2023-02-28T07:49:20.433Z,225
2023-02-28T07:50:20.417Z,225
2023-02-28T07:51:20.420Z,220
2023-02-28T07:52:21.800Z,220
2023-02-28T07:53:20.032Z,220
2023-02-28T07:54:20.213Z,215
2023-02-28T07:55:20.251Z,200
2023-02-28T07:56:19.887Z,180
2023-02-28T07:57:19.851Z,160
2023-02-28T07:58:20.042Z,155
2023-02-28T07:59:20.302Z,160
2023-02-28T08:00:20.375Z,160
2023-02-28T08:01:19.689Z,160
2023-02-28T08:02:20.081Z,160
2023-02-28T08:03:19.855Z,160
2023-02-28T08:04:19.568Z,160
2023-02-28T08:05:23.142Z,160
2023-02-28T08:06:19.760Z,160
2023-02-28T08:07:19.694Z,160
2023-02-28T08:08:19.695Z,165
2023-02-28T08:09:19.731Z,165
2023-02-28T08:10:20.424Z,165
2023-02-28T08:11:19.588Z,165
2023-02-28T08:12:19.524Z,165
2023-02-28T08:13:19.242Z,165
2023-02-28T08:14:19.440Z,170
2023-02-28T08:15:18.678Z,170
2023-02-28T08:16:19.613Z,170
2023-02-28T08:17:19.306Z,170
2023-02-28T08:18:19.367Z,170
2023-02-28T08:19:19.001Z,170
2023-02-28T08:20:18.975Z,175
2023-02-28T08:21:19.468Z,175
2023-02-28T08:22:19.151Z,175
2023-02-28T08:23:18.835Z,175
2023-02-28T08:24:18.887Z,170
2023-02-28T08:25:19.055Z,170
2023-02-28T08:26:18.745Z,170
2023-02-28T08:27:18.942Z,170
2023-02-28T08:28:19.152Z,175
2023-02-28T08:29:18.866Z,175
2023-02-28T08:30:18.839Z,175
2023-02-28T08:31:18.825Z,180
2023-02-28T08:32:38.405Z,180
2023-02-28T08:33:18.806Z,185
2023-02-28T08:34:18.687Z,185
2023-02-28T08:35:18.749Z,185
2023-02-28T08:36:18.893Z,190
2023-02-28T08:37:18.578Z,195
2023-02-28T08:38:18.555Z,200
2023-02-28T08:39:18.485Z,200
2023-02-28T08:40:18.536Z,205
2023-02-28T08:41:18.186Z,205
2023-02-28T08:42:18.119Z,205
2023-02-28T08:43:18.337Z,205
2023-02-28T08:44:18.299Z,200
2023-02-28T08:45:18.246Z,195
2023-02-28T08:46:18.643Z,190
2023-02-28T08:47:17.974Z,190
2023-02-28T08:48:20.434Z,185
2023-02-28T08:49:18.094Z,185
2023-02-28T08:50:18.171Z,190
2023-02-28T08:51:17.961Z,190
2023-02-28T08:52:17.998Z,190
2023-02-28T08:53:18.027Z,195
2023-02-28T08:54:17.994Z,195
2023-02-28T08:55:17.979Z,195
2023-02-28T08:56:17.660Z,195
2023-02-28T08:57:17.839Z,195
2023-02-28T08:58:17.945Z,195
2023-02-28T08:59:17.719Z,195
2023-02-28T09:00:17.744Z,195
2023-02-28T09:01:18.133Z,195
2023-02-28T09:02:17.624Z,195
2023-02-28T09:03:18.474Z,195
2023-02-28T09:04:24.731Z,195
2023-02-28T09:05:17.545Z,195
2023-02-28T09:06:17.526Z,195
2023-02-28T09:07:17.417Z,195
2023-02-28T09:08:17.385Z,195
2023-02-28T09:09:17.196Z,195
2023-02-28T09:10:17.108Z,195
2023-02-28T09:11:17.310Z,195
2023-02-28T09:12:17.345Z,195
2023-02-28T09:13:17.292Z,195
2023-02-28T09:14:16.961Z,195
2023-02-28T09:15:17.145Z,200
2023-02-28T09:16:17.298Z,200
2023-02-28T09:17:17.248Z,200
2023-02-28T09:18:16.764Z,200
2023-02-28T09:19:16.977Z,200
2023-02-28T09:20:16.969Z,200
2023-02-28T09:21:16.942Z,200
2023-02-28T09:22:16.663Z,200
2023-02-28T09:23:16.886Z,200
2023-02-28T09:24:16.808Z,205
2023-02-28T09:25:16.793Z,205
2023-02-28T09:26:16.797Z,195
2023-02-28T09:27:17.896Z,205
2023-02-28T09:28:16.685Z,205
2023-02-28T09:29:16.676Z,205
2023-02-28T09:30:16.616Z,205
2023-02-28T09:31:16.855Z,210
2023-02-28T09:32:16.725Z,210
2023-02-28T09:33:16.502Z,210
2023-02-28T09:34:16.733Z,210
2023-02-28T09:35:16.399Z,210
2023-02-28T09:36:16.370Z,210
2023-02-28T09:37:16.370Z,210
2023-02-28T09:38:16.314Z,210
2023-02-28T09:39:16.482Z,210
2023-02-28T09:40:16.275Z,210
2023-02-28T09:41:16.040Z,210
2023-02-28T09:42:16.196Z,210
2023-02-28T09:43:16.132Z,210
2023-02-28T09:44:16.152Z,210
2023-02-28T09:45:16.128Z,215
2023-02-28T09:46:16.562Z,215
2023-02-28T09:47:15.727Z,215
2023-02-28T09:48:15.742Z,215
2023-02-28T09:49:15.923Z,215
2023-02-28T09:50:15.937Z,215
2023-02-28T09:51:16.164Z,215
2023-02-28T09:52:15.532Z,215
2023-02-28T09:53:15.737Z,215
2023-02-28T09:54:15.319Z,205
2023-02-28T09:55:17.136Z,210
2023-02-28T09:56:15.397Z,220
2023-02-28T09:57:16.285Z,235
2023-02-28T09:58:15.346Z,245
2023-02-28T09:59:15.534Z,230
2023-02-28T10:00:16.881Z,210
2023-02-28T10:01:17.444Z,205
2023-02-28T10:02:15.422Z,220
2023-02-28T10:03:15.140Z,240
2023-02-28T10:04:15.461Z,245
2023-02-28T10:05:15.243Z,235
2023-02-28T10:06:15.285Z,230
2023-02-28T10:07:15.246Z,235
2023-02-28T10:08:15.213Z,245
2023-02-28T10:09:14.954Z,235
2023-02-28T10:10:15.202Z,230
2023-02-28T10:11:15.101Z,225
2023-02-28T10:12:15.093Z,225
2023-02-28T10:13:14.872Z,220
2023-02-28T10:14:15.203Z,220
2023-02-28T10:15:15.041Z,220
2023-02-28T10:16:15.205Z,220
2023-02-28T10:17:14.682Z,220
2023-02-28T10:18:20.119Z,220
2023-02-28T10:19:14.837Z,220
2023-02-28T10:20:14.883Z,220
2023-02-28T10:21:14.729Z,220
2023-02-28T10:22:14.814Z,225
2023-02-28T10:23:14.210Z,225
2023-02-28T10:24:15.190Z,225
2023-02-28T10:25:16.404Z,225
2023-02-28T10:26:14.566Z,225
2023-02-28T10:27:14.525Z,225
2023-02-28T10:28:14.260Z,225
2023-02-28T10:29:14.504Z,225
2023-02-28T10:30:14.442Z,225
2023-02-28T10:31:14.508Z,225
2023-02-28T10:32:14.758Z,225
2023-02-28T10:33:14.327Z,225
2023-02-28T10:34:14.028Z,225
2023-02-28T10:35:14.032Z,225
2023-02-28T10:36:14.322Z,225
2023-02-28T10:37:14.181Z,225
2023-02-28T10:38:14.177Z,225
2023-02-28T10:39:13.853Z,230
2023-02-28T10:40:14.101Z,230
2023-02-28T10:41:14.125Z,230
2023-02-28T10:42:14.089Z,230
2023-02-28T10:43:13.521Z,230
2023-02-28T10:44:13.933Z,230
2023-02-28T10:45:13.682Z,230
2023-02-28T10:46:14.227Z,230
2023-02-28T10:47:13.816Z,230
2023-02-28T10:48:13.830Z,235
2023-02-28T10:49:13.696Z,235
2023-02-28T10:50:13.738Z,235
2023-02-28T10:51:13.208Z,230
2023-02-28T10:52:13.775Z,230
2023-02-28T10:53:15.047Z,235
2023-02-28T10:54:13.327Z,235
2023-02-28T10:55:13.616Z,235
2023-02-28T10:56:13.523Z,235
2023-02-28T10:57:13.267Z,235
2023-02-28T10:58:13.197Z,235
2023-02-28T10:59:13.174Z,235
2023-02-28T11:00:13.165Z,240
2023-02-28T11:01:13.428Z,240
2023-02-28T11:02:15.620Z,240
2023-02-28T11:03:13.293Z,240
2023-02-28T11:04:13.306Z,245
2023-02-28T11:05:13.558Z,245
2023-02-28T11:06:13.169Z,240
2023-02-28T11:07:13.128Z,240
2023-02-28T11:08:13.091Z,245
2023-02-28T11:09:12.854Z,245
2023-02-28T11:10:12.817Z,245
2023-02-28T11:11:12.737Z,245
2023-02-28T11:12:12.484Z,245
2023-02-28T11:13:12.704Z,250
2023-02-28T11:14:12.948Z,260
2023-02-28T11:15:12.857Z,260
2023-02-28T11:16:13.189Z,260
2023-02-28T11:17:12.883Z,265
2023-02-28T11:18:12.828Z,255
2023-02-28T11:19:12.721Z,255
2023-02-28T11:20:12.735Z,245
2023-02-28T11:21:12.697Z,245
2023-02-28T11:22:12.678Z,240
2023-02-28T11:23:12.613Z,240
2023-02-28T11:24:12.528Z,245
2023-02-28T11:25:12.564Z,245
2023-02-28T11:26:12.343Z,250
2023-02-28T11:27:12.436Z,255
2023-02-28T11:28:12.621Z,250
2023-02-28T11:29:12.386Z,245
2023-02-28T11:30:12.428Z,250
2023-02-28T11:31:12.681Z,255
2023-02-28T11:32:12.624Z,260
2023-02-28T11:33:12.566Z,260
2023-02-28T11:34:12.444Z,280
2023-02-28T11:35:12.238Z,290
2023-02-28T11:36:12.401Z,300
2023-02-28T11:37:12.116Z,290
2023-02-28T11:38:12.071Z,275
2023-02-28T11:39:11.878Z,260
2023-02-28T11:40:12.014Z,235
2023-02-28T11:41:11.959Z,250
2023-02-28T11:42:12.260Z,225
2023-02-28T11:43:11.910Z,255
2023-02-28T11:44:11.894Z,255
2023-02-28T11:45:11.900Z,255
2023-02-28T11:46:11.833Z,255
2023-02-28T11:47:11.749Z,255
2023-02-28T11:48:11.739Z,255
2023-02-28T11:49:11.706Z,255
2023-02-28T11:50:11.222Z,255
2023-02-28T11:51:11.596Z,260
2023-02-28T11:52:11.349Z,260
2023-02-28T11:53:11.460Z,260
2023-02-28T11:54:11.504Z,260
2023-02-28T11:55:11.462Z,260
2023-02-28T11:56:11.441Z,265
2023-02-28T11:57:11.421Z,265
2023-02-28T11:58:11.388Z,265
2023-02-28T11:59:11.326Z,270
2023-02-28T12:00:11.327Z,270
2023-02-28T12:01:11.307Z,275
2023-02-28T12:02:11.525Z,280
2023-02-28T12:03:11.544Z,280
2023-02-28T12:04:11.189Z,285
2023-02-28T12:05:13.544Z,280
2023-02-28T12:06:10.915Z,250
2023-02-28T12:07:11.100Z,295
2023-02-28T12:08:11.062Z,305
2023-02-28T12:09:11.046Z,330
2023-02-28T12:10:10.977Z,370
2023-02-28T12:11:10.934Z,395
2023-02-28T12:12:11.425Z,415
2023-02-28T12:13:10.857Z,440
2023-02-28T12:14:10.636Z,465
2023-02-28T12:15:10.813Z,455
2023-02-28T12:16:11.052Z,415
2023-02-28T12:17:10.804Z,365
2023-02-28T12:18:10.711Z,375
2023-02-28T12:19:10.686Z,375
2023-02-28T12:20:10.625Z,360
2023-02-28T12:21:10.672Z,335
2023-02-28T12:22:10.375Z,315
2023-02-28T12:23:10.083Z,300
2023-02-28T12:24:10.296Z,250
2023-02-28T12:25:10.520Z,285
2023-02-28T12:26:10.479Z,280
2023-02-28T12:27:10.177Z,255
2023-02-28T12:28:10.117Z,260
2023-02-28T12:29:10.128Z,300
2023-02-28T12:30:10.323Z,275
2023-02-28T12:31:10.289Z,300
2023-02-28T12:32:11.023Z,315
2023-02-28T12:33:10.269Z,320
2023-02-28T12:34:10.186Z,320
2023-02-28T12:35:09.898Z,320
2023-02-28T12:36:10.402Z,315
2023-02-28T12:37:10.177Z,310
2023-02-28T12:38:10.062Z,310
2023-02-28T12:39:09.997Z,295
2023-02-28T12:40:09.875Z,260
2023-02-28T12:41:10.110Z,290
2023-02-28T12:42:09.673Z,285
2023-02-28T12:43:09.893Z,275
2023-02-28T12:44:09.870Z,295
2023-02-28T12:45:10.509Z,295
2023-02-28T12:46:10.584Z,290
2023-02-28T12:47:09.789Z,300
2023-02-28T12:48:09.851Z,300
2023-02-28T12:49:09.754Z,305
2023-02-28T12:50:09.638Z,315
2023-02-28T12:51:11.212Z,320
2023-02-28T12:52:09.379Z,325
2023-02-28T12:53:09.682Z,325
2023-02-28T12:54:09.313Z,315
2023-02-28T12:55:09.544Z,305
2023-02-28T12:56:09.482Z,300
2023-02-28T12:57:09.482Z,305
2023-02-28T12:58:09.146Z,310
2023-02-28T12:59:09.351Z,320
2023-02-28T13:00:09.312Z,325
2023-02-28T13:01:09.484Z,335
2023-02-28T13:02:09.537Z,350
2023-02-28T13:03:11.059Z,340
2023-02-28T13:04:08.960Z,350
2023-02-28T13:05:08.920Z,325
2023-02-28T13:06:08.867Z,315
2023-02-28T13:07:08.890Z,320
2023-02-28T13:08:09.048Z,330
2023-02-28T13:09:09.115Z,355
2023-02-28T13:10:09.059Z,365
2023-02-28T13:11:25.843Z,435
2023-02-28T13:12:08.998Z,445
2023-02-28T13:13:08.893Z,440
2023-02-28T13:14:08.865Z,390
2023-02-28T13:15:09.061Z,345
2023-02-28T13:16:08.795Z,335
2023-02-28T13:17:09.039Z,310
2023-02-28T13:18:08.754Z,290
2023-02-28T13:19:08.681Z,240
2023-02-28T13:20:08.690Z,240
2023-02-28T13:21:08.635Z,230
2023-02-28T13:22:08.583Z,260
2023-02-28T13:23:08.316Z,260
2023-02-28T13:24:08.586Z,265
2023-02-28T13:25:08.546Z,265
2023-02-28T13:26:08.470Z,265
2023-02-28T13:27:09.444Z,270
2023-02-28T13:28:08.409Z,270
2023-02-28T13:29:07.946Z,275
2023-02-28T13:30:08.079Z,275
2023-02-28T13:31:08.640Z,280
2023-02-28T13:32:08.511Z,285
2023-02-28T13:33:08.212Z,295
2023-02-28T13:34:08.234Z,315
2023-02-28T13:35:07.939Z,330
2023-02-28T13:36:08.276Z,375
2023-02-28T13:37:08.102Z,425
2023-02-28T13:38:08.041Z,425
2023-02-28T13:39:08.153Z,405
2023-02-28T13:40:08.035Z,385
2023-02-28T13:41:07.985Z,360
2023-02-28T13:42:07.950Z,335
2023-02-28T13:43:07.915Z,310
2023-02-28T13:44:07.863Z,265
2023-02-28T13:45:07.690Z,235
2023-02-28T13:46:07.999Z,255
2023-02-28T13:47:07.763Z,255
2023-02-28T13:48:07.715Z,260
2023-02-28T13:49:07.695Z,270
2023-02-28T13:50:07.672Z,265
2023-02-28T13:51:07.613Z,265
2023-02-28T13:52:07.675Z,270
2023-02-28T13:53:07.590Z,240
2023-02-28T13:54:07.615Z,280
2023-02-28T13:55:07.557Z,290
2023-02-28T13:56:07.286Z,290
2023-02-28T13:57:07.210Z,275
2023-02-28T13:58:07.430Z,260
2023-02-28T13:59:07.431Z,250
2023-02-28T14:00:07.381Z,250
2023-02-28T14:01:07.614Z,240
2023-02-28T14:02:07.319Z,230
2023-02-28T14:03:08.800Z,235
2023-02-28T14:04:06.992Z,250
2023-02-28T14:05:07.661Z,255
2023-02-28T14:06:06.973Z,250
2023-02-28T14:07:07.214Z,235
2023-02-28T14:08:06.973Z,245
2023-02-28T14:09:07.224Z,240
2023-02-28T14:10:07.618Z,235
2023-02-28T14:11:06.963Z,235
2023-02-28T14:12:07.306Z,235
2023-02-28T14:13:06.775Z,230